Airfield :
LOGIN :

Register | Disclaimer

   EN    FR    IT 

 










Legend :    VFR   Marginal VFR   IFR   Intensive IFR   Very Intensive IFR
Visi :
Ceiling :
>= 8 km
>= 3000ft
5 to 8 km
1000 to 3000 ft
1500m to 5 km
500 to 1000 ft
800 to 1500m
200 to 500 ft
< 800m
< 200 ft
Symbols :   Thunderstorms  Fog  Heavy snow  Heavy precipitations  Wind > 20 kt
SIGMETs :     Misc.  Thunderstorms  Icing  Turbulence  Mountain Waves  Volcanic Ashes






- Airport Elevation : 80 ft
- IATA code : LPL


EGGP - Liverpool John Lennon

CURRENT METAR :
  • 251250Z AUTO 28017KT 9999 BKN019/// 07/03 Q1010

EXPIRED METARs :
  • 251220Z AUTO 29012KT 9999 SCT021/// BKN026/// BKN033/// 06/03 Q1009
  • 251150Z AUTO 28011KT 9999 FEW015/// SCT020/// BKN028/// 06/04 Q1009 RERA
  • 251120Z AUTO 27013KT 9999 BKN025/// BKN030/// 05/03 Q1009
  • 251050Z 27011KT 9999 SCT021 05/03 Q1009
  • 251020Z 27009KT 9999 SCT021 04/02 Q1008

TAF TAF EGGP
Valid from the 25 at 12:00 until the 26 at 12:00 UTC


251101Z 2512/2612 28010KT 9999 SCT020
BECMG 2521/2524 22004KT
TEMPO 2608/2612 7000 -RADZ BKN012
PROB30
TEMPO 2610/2612 3000 RA RADZ BKN006
ATIS : +44 151 907 2000 (option 5 or ext 5150)
Met : +44 871 750 5150



MET'MAP, your aeronautical weather chart ! - Copyright ORBIFLY December 2007 - Disclaimer

ORBIFLY MET'MAP TEAM :

Programming & Development : Alexandra Zaïnal
Concept & original design : Baudouin d'Aumeries
Assistance for programming : Marc-Olivier Méhu
Technical & hardware support : Manuel Goepfert

Contact : metmap@orbifly.com




SOURCES & CREDITS :

   NOAA